Check out our new BloomSky Weather System.

Active alerts


No alerts


Thunder radar  blitzortung!


Rain radar more information rain snow radar


Visit our other weather sites:

Template documentation
and downloads

And another site



Weather Underground History page Text

Daily Summary for November 17, 2017 Units:  English    Metric   Both
« Previous Day
Next Day »
Daily Weekly Monthly Yearly Custom
  High: Low: Average:
Temperature: 84.9 °F 68.2 °F 75 °F
Dew Point: 72.9 °F 67.3 °F 69.3 °F
Humidity: 99 % 59 % 84 %
Wind Speed: 13.0 mph 0.0 mph 4.3 mph
Wind Gust: 18.0 mph - -
Wind:- - South
Pressure: 30.05 in 29.85 in -
Precipitation: 0.00 in    
Historical Graphs
 
 
Tabular Data for November 17, 2017
Time Temperature Dew Point Pressure Wind Wind Speed Wind Gust Humidity Rainfall Rate (Hourly)
00:01 69.3 °F 67.8 °F 30.03 in SE 1.0 mph 5.0 mph 95 % 0.00 in
00:06 69.1 °F 67.6 °F 30.03 in ESE 2.0 mph 4.0 mph 95 % 0.00 in
00:11 69.1 °F 67.6 °F 30.03 in SE 3.0 mph 4.0 mph 95 % 0.00 in
00:16 69.1 °F 67.6 °F 30.02 in East 2.0 mph 4.0 mph 95 % 0.00 in
00:21 69.1 °F 67.8 °F 30.02 in SE 2.0 mph 4.0 mph 96 % 0.00 in
00:26 68.9 °F 67.6 °F 30.02 in SE 3.0 mph 4.0 mph 96 % 0.00 in
00:31 68.9 °F 67.6 °F 30.02 in SSE 2.0 mph 5.0 mph 96 % 0.00 in
00:36 68.7 °F 67.5 °F 30.02 in SE 2.0 mph 5.0 mph 96 % 0.00 in
00:41 68.7 °F 67.5 °F 30.02 in ESE 1.0 mph 5.0 mph 96 % 0.00 in
00:46 68.7 °F 67.5 °F 30.01 in SSE 2.0 mph 4.0 mph 96 % 0.00 in
00:51 68.7 °F 67.5 °F 30.01 in SE 2.0 mph 5.0 mph 96 % 0.00 in
00:56 68.5 °F 67.3 °F 30.01 in SE 1.0 mph 5.0 mph 96 % 0.00 in
01:01 68.5 °F 67.3 °F 30.01 in SE 2.0 mph 5.0 mph 96 % 0.00 in
01:06 68.5 °F 67.3 °F 30.01 in SE 2.0 mph 3.0 mph 96 % 0.00 in
01:11 68.5 °F 67.6 °F 30.01 in ESE 1.0 mph 3.0 mph 97 % 0.00 in
01:16 68.4 °F 67.5 °F 30.01 in Calm   3.0 mph 97 % 0.00 in
01:22 68.4 °F 67.5 °F 30.01 in Calm   3.0 mph 97 % 0.00 in
01:27 68.2 °F 67.3 °F 30.01 in SSE 1.0 mph 2.0 mph 97 % 0.00 in
01:32 68.4 °F 67.5 °F 30.01 in ESE 2.0 mph 2.0 mph 97 % 0.00 in
01:37 68.4 °F 67.5 °F 30.01 in SE 2.0 mph 2.0 mph 97 % 0.00 in
01:42 68.5 °F 67.6 °F 30.00 in SE 2.0 mph 3.0 mph 97 % 0.00 in
01:47 68.5 °F 67.6 °F 30.00 in SE 2.0 mph 4.0 mph 97 % 0.00 in
01:52 68.5 °F 67.6 °F 30.00 in SSW 2.0 mph 4.0 mph 97 % 0.00 in
01:57 68.7 °F 67.8 °F 30.00 in SSW 1.0 mph 4.0 mph 97 % 0.00 in
02:02 68.7 °F 67.8 °F 30.00 in SSW 2.0 mph 3.0 mph 97 % 0.00 in
02:07 68.7 °F 67.8 °F 30.00 in SSE 1.0 mph 4.0 mph 97 % 0.00 in
02:12 68.9 °F 68.0 °F 30.00 in Calm   4.0 mph 97 % 0.00 in
02:17 69.1 °F 68.2 °F 30.00 in SSE 1.0 mph 4.0 mph 97 % 0.00 in
02:22 69.1 °F 68.2 °F 30.00 in SSE 2.0 mph 4.0 mph 97 % 0.00 in
02:27 69.1 °F 68.2 °F 30.00 in SSE 1.0 mph 4.0 mph 97 % 0.00 in
02:32 69.3 °F 68.7 °F 30.00 in Calm   3.0 mph 98 % 0.00 in
02:37 69.3 °F 68.4 °F 30.00 in SE 2.0 mph 4.0 mph 97 % 0.00 in
02:42 69.3 °F 68.4 °F 30.00 in SE 2.0 mph 4.0 mph 97 % 0.00 in
02:47 69.3 °F 68.4 °F 30.00 in South 2.0 mph 5.0 mph 97 % 0.00 in
02:52 69.3 °F 68.4 °F 30.00 in SE 2.0 mph 5.0 mph 97 % 0.00 in
02:57 69.4 °F 68.5 °F 30.00 in SSE 2.0 mph 5.0 mph 97 % 0.00 in
03:02 69.4 °F 68.5 °F 30.00 in SE 3.0 mph 3.0 mph 97 % 0.00 in
03:07 69.4 °F 68.5 °F 30.00 in SE 1.0 mph 3.0 mph 97 % 0.00 in
03:12 69.4 °F 68.5 °F 30.00 in SE 3.0 mph 3.0 mph 97 % 0.00 in
03:17 69.4 °F 68.5 °F 30.00 in SE 1.0 mph 3.0 mph 97 % 0.00 in
03:22 69.4 °F 68.5 °F 30.00 in East 3.0 mph 3.0 mph 97 % 0.00 in
03:27 69.4 °F 68.5 °F 30.00 in SSE 1.0 mph 4.0 mph 97 % 0.00 in
03:32 69.4 °F 68.5 °F 30.00 in SE 3.0 mph 4.0 mph 97 % 0.00 in
03:37 69.3 °F 68.4 °F 30.00 in SSE 1.0 mph 5.0 mph 97 % 0.00 in
03:42 69.3 °F 68.4 °F 30.00 in SE 2.0 mph 5.0 mph 97 % 0.00 in
03:47 69.3 °F 68.4 °F 30.00 in South 1.0 mph 5.0 mph 97 % 0.00 in
03:52 69.3 °F 68.4 °F 30.00 in SE 1.0 mph 4.0 mph 97 % 0.00 in
03:57 69.3 °F 68.4 °F 30.00 in ESE 1.0 mph 4.0 mph 97 % 0.00 in
04:02 69.3 °F 68.4 °F 30.00 in SE 2.0 mph 4.0 mph 97 % 0.00 in
04:07 69.4 °F 68.5 °F 30.00 in SE 1.0 mph 4.0 mph 97 % 0.00 in
04:09 69.4 °F 68.5 °F 30.00 in SE 2.0 mph 4.0 mph 97 % 0.00 in
04:14 69.4 °F 68.9 °F 30.00 in SE 2.0 mph 4.0 mph 98 % 0.00 in
04:19 69.4 °F 68.9 °F 30.00 in SE 1.0 mph 4.0 mph 98 % 0.00 in
04:24 69.4 °F 68.9 °F 30.00 in South 2.0 mph 4.0 mph 98 % 0.00 in
04:25 69.4 °F 68.9 °F 30.00 in SE 1.0 mph 4.0 mph 98 % 0.00 in
04:31 69.3 °F 68.7 °F 30.00 in Calm   3.0 mph 98 % 0.00 in
04:36 69.3 °F 68.7 °F 30.00 in Calm   2.0 mph 98 % 0.00 in
04:41 69.3 °F 68.7 °F 30.00 in Calm   2.0 mph 98 % 0.00 in
04:46 69.3 °F 68.7 °F 30.00 in Calm   1.0 mph 98 % 0.00 in
04:51 69.3 °F 68.7 °F 30.01 in SE 1.0 mph 1.0 mph 98 % 0.00 in
04:52 69.1 °F 68.5 °F 30.01 in SE 1.0 mph 1.0 mph 98 % 0.00 in
04:57 69.1 °F 68.5 °F 30.01 in SE 1.0 mph 1.0 mph 98 % 0.00 in
05:02 69.1 °F 68.5 °F 30.01 in Calm   1.0 mph 98 % 0.00 in
05:07 69.1 °F 68.5 °F 30.00 in ESE 1.0 mph 1.0 mph 98 % 0.00 in
05:18 69.1 °F 68.5 °F 30.01 in Calm   1.0 mph 98 % 0.00 in
05:23 69.1 °F 68.5 °F 30.01 in SE 1.0 mph 2.0 mph 98 % 0.00 in
05:28 69.1 °F 68.5 °F 30.01 in SSE 1.0 mph 3.0 mph 98 % 0.00 in
05:30 69.1 °F 68.5 °F 30.01 in SE 1.0 mph 3.0 mph 98 % 0.00 in
05:35 69.1 °F 68.5 °F 30.01 in ESE 1.0 mph 3.0 mph 98 % 0.00 in
05:40 69.3 °F 68.7 °F 30.00 in SE 2.0 mph 3.0 mph 98 % 0.00 in
05:45 69.3 °F 68.7 °F 30.01 in SSE 2.0 mph 3.0 mph 98 % 0.00 in
05:50 69.1 °F 68.5 °F 30.01 in SE 2.0 mph 3.0 mph 98 % 0.00 in
05:55 69.1 °F 68.5 °F 30.01 in ESE 1.0 mph 3.0 mph 98 % 0.00 in
06:00 69.1 °F 68.5 °F 30.01 in ESE 2.0 mph 3.0 mph 98 % 0.00 in
06:05 69.1 °F 68.5 °F 30.01 in South 2.0 mph 3.0 mph 98 % 0.00 in
06:10 69.1 °F 68.5 °F 30.01 in SE 1.0 mph 3.0 mph 98 % 0.00 in
06:15 69.1 °F 68.5 °F 30.01 in SE 1.0 mph 3.0 mph 98 % 0.00 in
06:20 69.1 °F 68.5 °F 30.01 in SE 1.0 mph 3.0 mph 98 % 0.00 in
06:25 69.1 °F 68.5 °F 30.01 in East 1.0 mph 3.0 mph 98 % 0.00 in
06:30 69.1 °F 68.5 °F 30.01 in Calm   3.0 mph 98 % 0.00 in
06:35 69.1 °F 68.5 °F 30.01 in SE 1.0 mph 2.0 mph 98 % 0.00 in
06:40 69.1 °F 68.5 °F 30.01 in Calm   2.0 mph 98 % 0.00 in
06:45 69.1 °F 68.5 °F 30.01 in Calm   2.0 mph 98 % 0.00 in
06:50 68.9 °F 68.4 °F 30.02 in Calm   2.0 mph 98 % 0.00 in
06:55 68.9 °F 68.4 °F 30.02 in Calm   2.0 mph 98 % 0.00 in
07:00 68.9 °F 68.5 °F 30.02 in Calm   1.0 mph 99 % 0.00 in
07:05 68.7 °F 68.4 °F 30.03 in Calm   1.0 mph 99 % 0.00 in
07:10 68.7 °F 68.4 °F 30.03 in Calm   1.0 mph 99 % 0.00 in
07:15 68.7 °F 68.4 °F 30.03 in Calm   1.0 mph 99 % 0.00 in
07:20 68.9 °F 68.5 °F 30.03 in Calm   1.0 mph 99 % 0.00 in
07:21 68.9 °F 68.5 °F 30.03 in Calm   1.0 mph 99 % 0.00 in
07:26 69.1 °F 68.7 °F 30.03 in Calm   2.0 mph 99 % 0.00 in
07:31 69.3 °F 68.9 °F 30.03 in Calm   2.0 mph 99 % 0.00 in
07:36 69.4 °F 69.1 °F 30.03 in Calm   2.0 mph 99 % 0.00 in
07:41 69.6 °F 69.3 °F 30.03 in Calm   3.0 mph 99 % 0.00 in
07:46 69.8 °F 69.4 °F 30.03 in South 1.0 mph 3.0 mph 99 % 0.00 in
07:51 70.0 °F 69.6 °F 30.04 in Calm   3.0 mph 99 % 0.00 in
07:56 70.2 °F 69.8 °F 30.04 in SSE 1.0 mph 3.0 mph 99 % 0.00 in
08:01 70.3 °F 70.0 °F 30.04 in SSE 1.0 mph 3.0 mph 99 % 0.00 in
08:06 70.5 °F 70.2 °F 30.04 in South 2.0 mph 3.0 mph 99 % 0.00 in
08:11 70.9 °F 70.5 °F 30.04 in SSE 1.0 mph 4.0 mph 99 % 0.00 in
08:16 71.2 °F 70.9 °F 30.04 in SSW 3.0 mph 4.0 mph 99 % 0.00 in
08:21 71.4 °F 70.9 °F 30.04 in SSE 2.0 mph 5.0 mph 98 % 0.00 in
08:26 71.8 °F 71.2 °F 30.05 in SE 3.0 mph 6.0 mph 98 % 0.00 in
08:31 72.0 °F 71.4 °F 30.04 in South 3.0 mph 6.0 mph 98 % 0.00 in
08:36 72.3 °F 71.4 °F 30.04 in SSE 3.0 mph 6.0 mph 97 % 0.00 in
08:41 72.9 °F 72.0 °F 30.04 in SE 4.0 mph 6.0 mph 97 % 0.00 in
08:46 73.2 °F 72.0 °F 30.04 in SSE 3.0 mph 6.0 mph 96 % 0.00 in
08:51 73.6 °F 72.1 °F 30.04 in SSW 4.0 mph 8.0 mph 95 % 0.00 in
08:56 73.9 °F 72.1 °F 30.04 in SE 4.0 mph 8.0 mph 94 % 0.00 in
09:01 74.1 °F 72.0 °F 30.04 in South 4.0 mph 8.0 mph 93 % 0.00 in
09:06 74.5 °F 72.3 °F 30.04 in SSE 5.0 mph 8.0 mph 93 % 0.00 in
09:11 74.7 °F 72.1 °F 30.04 in South 3.0 mph 8.0 mph 92 % 0.00 in
09:16 75.4 °F 72.5 °F 30.04 in SE 7.0 mph 7.0 mph 91 % 0.00 in
09:21 75.6 °F 72.1 °F 30.03 in SE 4.0 mph 10.0 mph 89 % 0.00 in
09:26 75.7 °F 72.3 °F 30.04 in SSE 5.0 mph 10.0 mph 89 % 0.00 in
09:31 76.1 °F 72.3 °F 30.04 in South 5.0 mph 10.0 mph 88 % 0.00 in
09:36 76.5 °F 72.3 °F 30.03 in SW 5.0 mph 11.0 mph 87 % 0.00 in
09:41 76.8 °F 72.3 °F 30.03 in SSE 5.0 mph 11.0 mph 86 % 0.00 in
09:46 77.4 °F 72.9 °F 30.03 in SW 5.0 mph 12.0 mph 86 % 0.00 in
09:51 77.5 °F 72.3 °F 30.03 in SSW 7.0 mph 12.0 mph 84 % 0.00 in
09:56 77.7 °F 72.5 °F 30.03 in SSE 5.0 mph 12.0 mph 84 % 0.00 in
10:01 78.1 °F 72.5 °F 30.03 in SSW 8.0 mph 10.0 mph 83 % 0.00 in
10:06 78.1 °F 72.1 °F 30.03 in SW 10.0 mph 10.0 mph 82 % 0.00 in
10:11 77.9 °F 72.0 °F 30.02 in SSW 4.0 mph 12.0 mph 82 % 0.00 in
10:16 78.1 °F 71.8 °F 30.02 in SSW 7.0 mph 12.0 mph 81 % 0.00 in
10:21 78.4 °F 72.5 °F 30.02 in SSW 3.0 mph 12.0 mph 82 % 0.00 in
10:26 78.4 °F 72.1 °F 30.02 in SSE 7.0 mph 11.0 mph 81 % 0.00 in
10:31 78.4 °F 72.1 °F 30.02 in SSE 3.0 mph 10.0 mph 81 % 0.00 in
10:36 79.0 °F 72.7 °F 30.02 in WSW 13.0 mph 13.0 mph 81 % 0.00 in
10:41 79.3 °F 72.0 °F 30.01 in South 6.0 mph 14.0 mph 78 % 0.00 in
10:46 79.7 °F 71.4 °F 30.01 in SSW 8.0 mph 14.0 mph 76 % 0.00 in
10:51 79.3 °F 71.4 °F 30.01 in SW 7.0 mph 14.0 mph 77 % 0.00 in
10:56 79.0 °F 71.1 °F 30.00 in SW 10.0 mph 14.0 mph 77 % 0.00 in
11:01 79.0 °F 71.6 °F 30.00 in SSW 6.0 mph 14.0 mph 78 % 0.00 in
11:06 79.2 °F 70.9 °F 30.00 in SW 12.0 mph 12.0 mph 76 % 0.00 in
11:11 79.2 °F 70.5 °F 29.99 in South 7.0 mph 12.0 mph 75 % 0.00 in
11:16 79.3 °F 70.3 °F 30.00 in SW 11.0 mph 12.0 mph 74 % 0.00 in
11:21 79.2 °F 69.8 °F 29.99 in South 5.0 mph 14.0 mph 73 % 0.00 in
11:22 79.2 °F 70.2 °F 29.99 in South 5.0 mph 14.0 mph 74 % 0.00 in
11:27 79.5 °F 70.2 °F 30.00 in SW 8.0 mph 15.0 mph 73 % 0.00 in
11:32 80.1 °F 71.1 °F 30.00 in SSE 2.0 mph 15.0 mph 74 % 0.00 in
11:37 80.6 °F 70.7 °F 30.00 in WSW 6.0 mph 15.0 mph 72 % 0.00 in
11:42 81.0 °F 71.1 °F 29.99 in SSW 7.0 mph 13.0 mph 72 % 0.00 in
11:47 81.7 °F 71.4 °F 29.99 in SW 3.0 mph 13.0 mph 71 % 0.00 in
11:52 82.2 °F 71.1 °F 29.99 in SW 9.0 mph 12.0 mph 69 % 0.00 in
11:57 82.2 °F 70.5 °F 29.99 in SE 7.0 mph 13.0 mph 68 % 0.00 in
12:07 82.9 °F 70.3 °F 29.98 in South 6.0 mph 14.0 mph 66 % 0.00 in
12:12 82.9 °F 70.9 °F 29.98 in South 5.0 mph 14.0 mph 67 % 0.00 in
12:17 83.3 °F 70.7 °F 29.97 in SW 7.0 mph 14.0 mph 66 % 0.00 in
12:22 82.9 °F 70.0 °F 29.97 in SSW 4.0 mph 13.0 mph 65 % 0.00 in
12:27 83.1 °F 70.5 °F 29.97 in SW 5.0 mph 13.0 mph 66 % 0.00 in
12:32 82.8 °F 69.8 °F 29.97 in South 8.0 mph 15.0 mph 65 % 0.00 in
12:37 82.8 °F 70.2 °F 29.97 in West 1.0 mph 15.0 mph 66 % 0.00 in
12:42 82.9 °F 70.3 °F 29.96 in SSW 2.0 mph 15.0 mph 66 % 0.00 in
12:47 82.9 °F 70.9 °F 29.96 in SSE 4.0 mph 11.0 mph 67 % 0.00 in
12:52 82.8 °F 70.2 °F 29.96 in SW 3.0 mph 11.0 mph 66 % 0.00 in
12:57 82.8 °F 69.8 °F 29.95 in WSW 10.0 mph 11.0 mph 65 % 0.00 in
13:02 82.6 °F 69.6 °F 29.95 in SW 8.0 mph 11.0 mph 65 % 0.00 in
13:07 82.8 °F 69.8 °F 29.94 in SSW 6.0 mph 11.0 mph 65 % 0.00 in
13:12 83.5 °F 70.5 °F 29.94 in South 7.0 mph 11.0 mph 65 % 0.00 in
13:17 83.7 °F 69.8 °F 29.94 in South 5.0 mph 13.0 mph 63 % 0.00 in
13:22 84.0 °F 70.0 °F 29.94 in South 5.0 mph 13.0 mph 63 % 0.00 in
13:27 84.4 °F 70.0 °F 29.93 in SSE 8.0 mph 13.0 mph 62 % 0.00 in
13:32 84.4 °F 69.4 °F 29.93 in SW 5.0 mph 16.0 mph 61 % 0.00 in
13:37 84.4 °F 70.0 °F 29.92 in SSW 10.0 mph 16.0 mph 62 % 0.00 in
13:42 84.0 °F 69.6 °F 29.92 in WSW 11.0 mph 16.0 mph 62 % 0.00 in
13:47 83.8 °F 69.4 °F 29.91 in SE 9.0 mph 13.0 mph 62 % 0.00 in
13:52 84.0 °F 69.1 °F 29.91 in South 7.0 mph 15.0 mph 61 % 0.00 in
13:58 84.0 °F 68.7 °F 29.91 in SW 10.0 mph 15.0 mph 60 % 0.00 in
14:03 83.7 °F 68.7 °F 29.91 in SSW 4.0 mph 15.0 mph 61 % 0.00 in
14:08 83.3 °F 69.4 °F 29.91 in SE 7.0 mph 15.0 mph 63 % 0.00 in
14:13 83.5 °F 69.1 °F 29.91 in South 8.0 mph 15.0 mph 62 % 0.00 in
14:18 83.7 °F 69.3 °F 29.90 in SW 11.0 mph 12.0 mph 62 % 0.00 in
14:23 84.0 °F 69.1 °F 29.90 in South 7.0 mph 16.0 mph 61 % 0.00 in
14:28 84.6 °F 69.6 °F 29.90 in SSW 5.0 mph 16.0 mph 61 % 0.00 in
14:33 84.7 °F 69.3 °F 29.90 in SSW 5.0 mph 16.0 mph 60 % 0.00 in
14:38 84.9 °F 69.4 °F 29.90 in South 9.0 mph 16.0 mph 60 % 0.00 in
14:43 84.9 °F 69.4 °F 29.90 in SW 5.0 mph 14.0 mph 60 % 0.00 in
14:48 84.7 °F 68.9 °F 29.89 in South 7.0 mph 12.0 mph 59 % 0.00 in
14:53 84.6 °F 69.1 °F 29.89 in SSW 6.0 mph 15.0 mph 60 % 0.00 in
14:58 84.2 °F 68.7 °F 29.89 in SSW 6.0 mph 15.0 mph 60 % 0.00 in
15:03 83.7 °F 68.7 °F 29.89 in South 5.0 mph 15.0 mph 61 % 0.00 in
15:08 84.2 °F 68.7 °F 29.89 in SW 10.0 mph 14.0 mph 60 % 0.00 in
15:13 84.0 °F 68.7 °F 29.89 in SSW 5.0 mph 14.0 mph 60 % 0.00 in
15:18 83.7 °F 68.7 °F 29.89 in WSW 6.0 mph 14.0 mph 61 % 0.00 in
15:23 83.5 °F 68.5 °F 29.89 in SW 9.0 mph 14.0 mph 61 % 0.00 in
15:28 83.7 °F 68.4 °F 29.88 in South 6.0 mph 18.0 mph 60 % 0.00 in
15:33 83.8 °F 68.5 °F 29.88 in SE 6.0 mph 18.0 mph 60 % 0.00 in
15:38 83.8 °F 68.5 °F 29.88 in WSW 12.0 mph 18.0 mph 60 % 0.00 in
15:43 83.5 °F 68.5 °F 29.89 in SW 6.0 mph 15.0 mph 61 % 0.00 in
15:48 83.1 °F 68.7 °F 29.89 in SSE 8.0 mph 15.0 mph 62 % 0.00 in
15:53 83.1 °F 68.7 °F 29.89 in SSW 3.0 mph 15.0 mph 62 % 0.00 in
15:58 83.1 °F 68.7 °F 29.89 in SSW 11.0 mph 15.0 mph 62 % 0.00 in
16:03 82.9 °F 68.5 °F 29.89 in SSW 3.0 mph 13.0 mph 62 % 0.00 in
16:08 82.6 °F 68.7 °F 29.89 in SSW 8.0 mph 13.0 mph 63 % 0.00 in
16:13 82.6 °F 68.7 °F 29.88 in SW 8.0 mph 13.0 mph 63 % 0.00 in
16:18 82.6 °F 68.7 °F 29.89 in SSE 4.0 mph 13.0 mph 63 % 0.00 in
16:23 82.4 °F 68.5 °F 29.88 in SW 5.0 mph 13.0 mph 63 % 0.00 in
16:28 82.2 °F 68.9 °F 29.88 in SSW 7.0 mph 13.0 mph 64 % 0.00 in
16:33 81.9 °F 68.9 °F 29.88 in South 4.0 mph 14.0 mph 65 % 0.00 in
16:38 81.5 °F 68.5 °F 29.88 in SW 6.0 mph 14.0 mph 65 % 0.00 in
16:43 81.3 °F 68.9 °F 29.88 in South 6.0 mph 14.0 mph 66 % 0.00 in
16:48 81.1 °F 68.7 °F 29.88 in SW 5.0 mph 13.0 mph 66 % 0.00 in
16:53 81.0 °F 68.9 °F 29.87 in SSE 6.0 mph 10.0 mph 67 % 0.00 in
16:59 80.8 °F 68.7 °F 29.88 in South 7.0 mph 10.0 mph 67 % 0.00 in
17:04 80.8 °F 68.7 °F 29.88 in SE 8.0 mph 11.0 mph 67 % 0.00 in
17:09 80.4 °F 68.9 °F 29.87 in SSW 4.0 mph 13.0 mph 68 % 0.00 in
17:14 80.4 °F 68.9 °F 29.87 in SW 6.0 mph 13.0 mph 68 % 0.00 in
17:19 80.1 °F 68.5 °F 29.87 in SSW 8.0 mph 13.0 mph 68 % 0.00 in
17:24 79.9 °F 68.7 °F 29.87 in South 4.0 mph 13.0 mph 69 % 0.00 in
17:29 79.7 °F 68.5 °F 29.87 in South 5.0 mph 13.0 mph 69 % 0.00 in
17:34 79.5 °F 68.5 °F 29.87 in SSW 7.0 mph 14.0 mph 69 % 0.00 in
17:39 79.3 °F 68.4 °F 29.87 in SSW 6.0 mph 14.0 mph 69 % 0.00 in
17:44 79.2 °F 68.5 °F 29.87 in SSE 6.0 mph 16.0 mph 70 % 0.00 in
17:49 79.0 °F 68.4 °F 29.87 in SSW 5.0 mph 16.0 mph 70 % 0.00 in
17:54 78.8 °F 68.5 °F 29.87 in SSW 10.0 mph 16.0 mph 71 % 0.00 in
17:59 78.4 °F 68.2 °F 29.87 in SSW 4.0 mph 13.0 mph 71 % 0.00 in
18:04 78.3 °F 68.0 °F 29.87 in SSW 5.0 mph 12.0 mph 71 % 0.00 in
18:09 78.3 °F 68.5 °F 29.87 in SSW 7.0 mph 13.0 mph 72 % 0.00 in
18:14 78.1 °F 68.4 °F 29.87 in SSW 4.0 mph 13.0 mph 72 % 0.00 in
18:19 77.7 °F 68.0 °F 29.87 in SSW 5.0 mph 13.0 mph 72 % 0.00 in
18:24 77.7 °F 68.4 °F 29.87 in South 6.0 mph 11.0 mph 73 % 0.00 in
18:29 77.5 °F 68.2 °F 29.87 in SE 5.0 mph 11.0 mph 73 % 0.00 in
18:34 77.4 °F 68.0 °F 29.87 in South 3.0 mph 10.0 mph 73 % 0.00 in
18:39 77.2 °F 68.2 °F 29.87 in SSW 7.0 mph 10.0 mph 74 % 0.00 in
18:44 77.2 °F 68.2 °F 29.87 in SW 7.0 mph 11.0 mph 74 % 0.00 in
18:49 77.0 °F 68.5 °F 29.87 in SSW 4.0 mph 13.0 mph 75 % 0.00 in
18:54 76.8 °F 68.4 °F 29.87 in SSE 5.0 mph 13.0 mph 75 % 0.00 in
18:59 76.6 °F 68.5 °F 29.87 in SSW 5.0 mph 13.0 mph 76 % 0.00 in
19:04 76.5 °F 68.4 °F 29.87 in SSE 7.0 mph 11.0 mph 76 % 0.00 in
19:09 76.5 °F 68.4 °F 29.87 in SW 7.0 mph 11.0 mph 76 % 0.00 in
19:14 76.3 °F 68.5 °F 29.87 in South 4.0 mph 11.0 mph 77 % 0.00 in
19:19 76.1 °F 68.7 °F 29.88 in SSW 3.0 mph 11.0 mph 78 % 0.00 in
19:24 75.9 °F 68.5 °F 29.88 in SW 6.0 mph 11.0 mph 78 % 0.00 in
19:29 75.9 °F 68.9 °F 29.88 in SSE 6.0 mph 17.0 mph 79 % 0.00 in
19:34 75.7 °F 68.7 °F 29.88 in SSE 4.0 mph 17.0 mph 79 % 0.00 in
19:39 75.6 °F 68.9 °F 29.88 in SSE 7.0 mph 17.0 mph 80 % 0.00 in
19:44 75.4 °F 68.7 °F 29.88 in SSW 2.0 mph 11.0 mph 80 % 0.00 in
19:49 75.2 °F 68.9 °F 29.88 in South 5.0 mph 11.0 mph 81 % 0.00 in
19:54 75.0 °F 68.7 °F 29.88 in SSE 3.0 mph 10.0 mph 81 % 0.00 in
19:59 75.0 °F 69.1 °F 29.88 in SSW 4.0 mph 9.0 mph 82 % 0.00 in
20:04 74.8 °F 68.9 °F 29.88 in South 7.0 mph 10.0 mph 82 % 0.00 in
20:09 74.8 °F 69.3 °F 29.88 in SE 6.0 mph 11.0 mph 83 % 0.00 in
20:11 74.8 °F 69.3 °F 29.88 in South 6.0 mph 11.0 mph 83 % 0.00 in
20:16 74.7 °F 69.1 °F 29.88 in South 5.0 mph 15.0 mph 83 % 0.00 in
20:21 74.5 °F 69.3 °F 29.88 in SW 3.0 mph 15.0 mph 84 % 0.00 in
20:26 74.5 °F 69.3 °F 29.89 in SSE 7.0 mph 15.0 mph 84 % 0.00 in
20:31 74.5 °F 69.6 °F 29.89 in SSW 5.0 mph 11.0 mph 85 % 0.00 in
20:36 74.3 °F 69.4 °F 29.89 in SSE 5.0 mph 11.0 mph 85 % 0.00 in
20:41 74.1 °F 69.6 °F 29.88 in SSW 5.0 mph 11.0 mph 86 % 0.00 in
20:46 74.1 °F 69.6 °F 29.88 in SSW 7.0 mph 11.0 mph 86 % 0.00 in
20:51 73.9 °F 69.4 °F 29.89 in South 6.0 mph 10.0 mph 86 % 0.00 in
20:56 73.9 °F 69.8 °F 29.89 in ESE 7.0 mph 12.0 mph 87 % 0.00 in
21:01 73.8 °F 69.6 °F 29.89 in ESE 7.0 mph 12.0 mph 87 % 0.00 in
21:06 73.8 °F 69.6 °F 29.89 in SSE 5.0 mph 12.0 mph 87 % 0.00 in
21:11 73.8 °F 70.0 °F 29.89 in SSE 5.0 mph 12.0 mph 88 % 0.00 in
21:17 73.8 °F 70.0 °F 29.89 in WSW 6.0 mph 12.0 mph 88 % 0.00 in
21:22 73.8 °F 70.0 °F 29.89 in South 6.0 mph 12.0 mph 88 % 0.00 in
21:23 73.8 °F 70.0 °F 29.89 in South 4.0 mph 12.0 mph 88 % 0.00 in
21:25 73.6 °F 69.8 °F 29.89 in South 8.0 mph 11.0 mph 88 % 0.00 in
21:26 73.6 °F 69.8 °F 29.89 in SSW 5.0 mph 11.0 mph 88 % 0.00 in
21:29 73.6 °F 69.8 °F 29.89 in SW 4.0 mph 11.0 mph 88 % 0.00 in
21:31 73.6 °F 69.8 °F 29.88 in SW 6.0 mph 12.0 mph 88 % 0.00 in
21:36 73.4 °F 70.0 °F 29.88 in SSW 5.0 mph 12.0 mph 89 % 0.00 in
21:41 73.2 °F 69.8 °F 29.88 in SSW 9.0 mph 12.0 mph 89 % 0.00 in
21:46 73.2 °F 69.8 °F 29.88 in SSW 7.0 mph 11.0 mph 89 % 0.00 in
21:51 73.0 °F 70.0 °F 29.88 in SSW 5.0 mph 12.0 mph 90 % 0.00 in
21:56 73.0 °F 70.0 °F 29.88 in South 3.0 mph 12.0 mph 90 % 0.00 in
22:01 72.9 °F 69.8 °F 29.88 in SSE 6.0 mph 12.0 mph 90 % 0.00 in
22:06 72.9 °F 69.8 °F 29.88 in SSE 6.0 mph 11.0 mph 90 % 0.00 in
22:07 72.9 °F 69.8 °F 29.88 in SSW 5.0 mph 11.0 mph 90 % 0.00 in
22:12 72.9 °F 69.8 °F 29.88 in SSE 7.0 mph 11.0 mph 90 % 0.00 in
22:17 72.7 °F 69.6 °F 29.88 in SW 9.0 mph 11.0 mph 90 % 0.00 in
22:22 72.7 °F 69.6 °F 29.88 in SSE 4.0 mph 11.0 mph 90 % 0.00 in
22:27 72.7 °F 69.6 °F 29.88 in SSW 4.0 mph 11.0 mph 90 % 0.00 in
22:32 72.5 °F 69.4 °F 29.87 in SSE 6.0 mph 11.0 mph 90 % 0.00 in
22:37 72.3 °F 69.3 °F 29.88 in SSE 7.0 mph 11.0 mph 90 % 0.00 in
22:42 72.3 °F 69.3 °F 29.88 in SSE 4.0 mph 11.0 mph 90 % 0.00 in
22:48 72.3 °F 69.3 °F 29.88 in SW 5.0 mph 11.0 mph 90 % 0.00 in
22:53 72.3 °F 69.3 °F 29.87 in SSW 5.0 mph 11.0 mph 90 % 0.00 in
22:58 72.1 °F 69.1 °F 29.87 in SW 12.0 mph 13.0 mph 90 % 0.00 in
23:03 72.1 °F 69.4 °F 29.87 in South 4.0 mph 13.0 mph 91 % 0.00 in
23:08 72.1 °F 69.4 °F 29.87 in SSE 4.0 mph 13.0 mph 91 % 0.00 in
23:13 72.0 °F 69.3 °F 29.87 in SSW 4.0 mph 12.0 mph 91 % 0.00 in
23:18 72.0 °F 69.3 °F 29.87 in SSW 6.0 mph 10.0 mph 91 % 0.00 in
23:23 72.0 °F 69.3 °F 29.87 in South 4.0 mph 10.0 mph 91 % 0.00 in
23:28 72.0 °F 69.3 °F 29.86 in SW 9.0 mph 11.0 mph 91 % 0.00 in
23:33 71.8 °F 69.1 °F 29.86 in SE 6.0 mph 12.0 mph 91 % 0.00 in
23:38 71.8 °F 69.3 °F 29.86 in South 4.0 mph 12.0 mph 92 % 0.00 in
23:43 71.8 °F 69.3 °F 29.86 in SSW 3.0 mph 12.0 mph 92 % 0.00 in
23:48 71.6 °F 69.1 °F 29.86 in SW 10.0 mph 12.0 mph 92 % 0.00 in
23:53 71.6 °F 69.1 °F 29.85 in SSW 4.0 mph 12.0 mph 92 % 0.00 in
23:58 71.6 °F 69.1 °F 29.85 in SW 9.0 mph 13.0 mph 92 % 0.00 in
Spring, Texas: Villages of Bridgestone
Compliments of Weather Underground - 2.75 mb

Script developed by  Jim McMurry - jmcmurry@mwt.net Adapted for the template by  Wim van der Kuil - Leuven-Template.eu

You find our weather info also at:

UK Metoffice

WeatherCloud

Weather Underground

Mid-South Weather Network

AWEKAS

Citizen Weather Observer Program (CWOP)

HAMweather, WeatherForYou, PWS Weather

Equipment we use:

Weather-station
Davis Vantage Vue

Weather-program
Meteohub

Weather-server
Debian 7.9 x86 (Guest)

Provider
DreamHost

Davis Vantage Vue

Meteohub

Debian 7.9 x86 (Guest)

DreamHost